Glouster Point, Virginia
Current Conditions -  °F | °C
As of 12:54 AM on Friday 31 Oct 2014 (Local Time) from KPHF Reporting Station
Clear Clear  
Wind Chill: 50°   Ceiling: Unl
Heat Index: 50°   Visibility: 10mi
Dew Point: 44°   Wind: 8mph
Humidity: 80%   Direction: 360°N
Pressure: 30"   Gusts: NA
Location:  37.2577°N, 76.4965°W
Report Text: KPHF 310454Z 36007KT 10SM CLR 10/07 A3000 RMK AO2 RAE0355 SLP159 P0000 T01000067 401940078
Loading
Personal Weather Stations






























Interactive Weather Map
Tropical Storm Tracking
New forecast layout! Learn more

10-Day Weather Forecast

Advertisements
Track Severe Weather on mobile